createdAt,value
2022-11-13T00:00:49.212Z,13.20
2022-11-13T00:03:54.122Z,13.20
2022-11-13T00:06:59.589Z,13.30
2022-11-13T00:10:05.146Z,13.30
2022-11-13T00:13:09.857Z,13.20
2022-11-13T00:16:17.702Z,13.30
2022-11-13T00:19:22.275Z,13.20
2022-11-13T00:22:27.166Z,13.20
2022-11-13T00:25:32.043Z,13.20
2022-11-13T00:28:36.947Z,13.30
2022-11-13T00:31:41.328Z,13.20
2022-11-13T00:34:48.017Z,13.20
2022-11-13T00:37:54.887Z,13.20
2022-11-13T00:41:02.222Z,13.20
2022-11-13T00:44:07.228Z,13.20
2022-11-13T00:47:11.744Z,13.20
2022-11-13T00:50:16.831Z,13.20
2022-11-13T00:53:21.803Z,13.10
2022-11-13T00:56:26.583Z,13.10
2022-11-13T00:59:31.352Z,13.20
2022-11-13T01:02:36.278Z,13.20
2022-11-13T01:05:43.813Z,13.20
2022-11-13T01:08:49.171Z,13.20
2022-11-13T01:11:54.728Z,13.10
2022-11-13T01:15:00.068Z,13.10
2022-11-13T01:18:04.843Z,13.10
2022-11-13T01:21:10.966Z,13.10
2022-11-13T01:24:15.623Z,13.10
2022-11-13T01:27:20.288Z,13.10
2022-11-13T01:30:25.067Z,13.00
2022-11-13T01:33:32.807Z,13.00
2022-11-13T01:36:37.306Z,13.00
2022-11-13T01:39:45.107Z,13.00
2022-11-13T01:42:49.752Z,13.00
2022-11-13T01:46:00.697Z,12.90
2022-11-13T01:49:08.578Z,12.90
2022-11-13T01:52:38.962Z,12.90
2022-11-13T01:55:43.966Z,12.90
2022-11-13T01:58:58.524Z,12.90
2022-11-13T02:02:03.177Z,12.90
2022-11-13T02:05:09.671Z,12.90
2022-11-13T02:08:14.734Z,12.90
2022-11-13T02:11:20.455Z,12.90
2022-11-13T02:14:29.182Z,12.90
2022-11-13T02:17:57.559Z,12.90
2022-11-13T02:21:13.718Z,12.90
2022-11-13T02:24:18.731Z,12.90
2022-11-13T02:27:29.289Z,12.80
2022-11-13T02:30:38.353Z,12.80
2022-11-13T02:33:43.330Z,12.70
2022-11-13T02:36:49.260Z,12.70
2022-11-13T02:39:53.746Z,12.70
2022-11-13T02:42:58.558Z,12.60
2022-11-13T02:46:03.308Z,12.60
2022-11-13T02:49:08.438Z,12.60
2022-11-13T02:52:13.237Z,12.50
2022-11-13T02:55:18.200Z,12.50
2022-11-13T02:58:23.094Z,12.50
2022-11-13T03:01:27.899Z,12.40
2022-11-13T03:04:57.293Z,12.50
2022-11-13T03:07:57.002Z,12.50
2022-11-13T03:11:10.954Z,12.50
2022-11-13T03:14:15.797Z,12.50
2022-11-13T03:17:20.621Z,12.50
2022-11-13T03:20:25.311Z,12.60
2022-11-13T03:23:30.201Z,12.60
2022-11-13T03:26:35.295Z,12.60
2022-11-13T03:29:40.048Z,12.60
2022-11-13T03:32:44.969Z,12.70
2022-11-13T03:35:49.749Z,12.70
2022-11-13T03:38:54.555Z,12.70
2022-11-13T03:41:59.282Z,12.70
2022-11-13T03:45:04.494Z,12.70
2022-11-13T03:48:09.439Z,12.70
2022-11-13T03:51:14.592Z,12.70
2022-11-13T03:54:19.276Z,12.70
2022-11-13T03:57:23.954Z,12.80
2022-11-13T04:00:30.316Z,12.70
2022-11-13T04:03:35.709Z,12.70
2022-11-13T04:06:40.454Z,12.70
2022-11-13T04:09:45.206Z,12.70
2022-11-13T04:12:54.518Z,12.70
2022-11-13T04:15:59.222Z,12.80
2022-11-13T04:19:04.184Z,12.80
2022-11-13T04:22:08.822Z,12.80
2022-11-13T04:25:13.555Z,12.80
2022-11-13T04:28:18.611Z,12.80
2022-11-13T04:31:23.493Z,12.80
2022-11-13T04:34:28.463Z,12.70
2022-11-13T04:37:33.380Z,12.70
2022-11-13T04:40:39.019Z,12.70
2022-11-13T04:43:43.996Z,12.70
2022-11-13T04:46:48.863Z,12.70
2022-11-13T04:49:53.867Z,12.70
2022-11-13T04:52:58.833Z,12.70
2022-11-13T04:56:03.975Z,12.70
2022-11-13T04:59:09.497Z,12.70
2022-11-13T05:02:14.049Z,12.70
2022-11-13T05:05:18.947Z,12.70
2022-11-13T05:08:23.987Z,12.70
2022-11-13T05:11:29.007Z,12.70
2022-11-13T05:14:39.321Z,12.70
2022-11-13T05:17:44.181Z,12.70
2022-11-13T05:20:48.908Z,12.70
2022-11-13T05:23:54.228Z,12.60
2022-11-13T05:26:58.956Z,12.60
2022-11-13T05:30:04.748Z,12.60
2022-11-13T05:33:09.655Z,12.60
2022-11-13T05:36:16.274Z,12.50
2022-11-13T05:39:21.057Z,12.50
2022-11-13T05:42:25.677Z,12.50
2022-11-13T05:45:30.085Z,12.40
2022-11-13T05:48:35.481Z,12.40
2022-11-13T05:51:40.331Z,12.40
2022-11-13T05:54:45.380Z,12.40
2022-11-13T05:57:50.143Z,12.50
2022-11-13T06:01:04.943Z,12.40
2022-11-13T06:04:10.243Z,12.40
2022-11-13T06:07:15.674Z,12.40
2022-11-13T06:10:20.403Z,12.30
2022-11-13T06:13:25.694Z,12.30
2022-11-13T06:16:34.760Z,12.30
2022-11-13T06:19:39.311Z,12.30
2022-11-13T06:22:44.123Z,12.30
2022-11-13T06:25:49.056Z,12.20
2022-11-13T06:28:53.875Z,12.20
2022-11-13T06:31:59.480Z,12.20
2022-11-13T06:35:04.400Z,12.20
2022-11-13T06:38:08.784Z,12.10
2022-11-13T06:41:15.441Z,12.10
2022-11-13T06:44:20.170Z,12.10
2022-11-13T06:47:24.750Z,12.10
2022-11-13T06:50:29.512Z,12.00
2022-11-13T06:53:34.710Z,12.00
2022-11-13T06:56:45.254Z,12.00
2022-11-13T06:59:50.133Z,12.00
2022-11-13T07:02:54.911Z,12.00
2022-11-13T07:06:03.845Z,11.90
2022-11-13T07:09:11.896Z,11.90
2022-11-13T07:12:16.993Z,11.90
2022-11-13T07:15:21.773Z,11.90
2022-11-13T07:18:26.949Z,11.90
2022-11-13T07:21:31.892Z,11.90
2022-11-13T07:24:36.692Z,11.80
2022-11-13T07:27:45.340Z,11.80
2022-11-13T07:30:50.001Z,11.80
2022-11-13T07:33:55.058Z,11.80
2022-11-13T07:37:00.296Z,11.70
2022-11-13T07:40:06.159Z,11.70
2022-11-13T07:43:10.583Z,11.70
2022-11-13T07:46:15.716Z,11.70
2022-11-13T07:49:20.374Z,11.70
2022-11-13T07:52:32.329Z,11.70
2022-11-13T07:55:37.294Z,11.70
2022-11-13T07:58:45.805Z,11.70
2022-11-13T08:01:50.628Z,11.80
2022-11-13T08:04:56.159Z,11.80
2022-11-13T08:08:01.311Z,11.80
2022-11-13T08:11:08.769Z,11.80
2022-11-13T08:14:13.762Z,11.80
2022-11-13T08:17:18.911Z,11.80
2022-11-13T08:20:25.160Z,11.80
2022-11-13T08:23:32.828Z,11.80
2022-11-13T08:26:38.814Z,11.80
2022-11-13T08:29:44.077Z,11.90
2022-11-13T08:32:50.258Z,11.90
2022-11-13T08:35:56.619Z,11.90
2022-11-13T08:39:01.309Z,11.90
2022-11-13T08:42:06.175Z,11.90
2022-11-13T08:45:11.156Z,11.90
2022-11-13T08:48:15.607Z,12.00
2022-11-13T08:51:21.007Z,12.00
2022-11-13T08:54:26.119Z,12.00
2022-11-13T08:57:33.031Z,12.10
2022-11-13T09:00:37.918Z,12.10
2022-11-13T09:03:42.765Z,12.10
2022-11-13T09:06:47.472Z,12.20
2022-11-13T09:09:52.128Z,12.20
2022-11-13T09:13:02.377Z,12.20
2022-11-13T09:16:06.949Z,12.30
2022-11-13T09:19:11.877Z,12.30
2022-11-13T09:22:17.657Z,12.30
2022-11-13T09:25:22.666Z,12.30
2022-11-13T09:28:27.932Z,12.40
2022-11-13T09:31:32.943Z,12.40
2022-11-13T09:34:37.763Z,12.40
2022-11-13T09:37:42.504Z,12.50
2022-11-13T09:41:10.204Z,12.60
2022-11-13T09:44:28.511Z,12.60
2022-11-13T09:47:44.130Z,12.70
2022-11-13T09:50:49.118Z,12.80
2022-11-13T09:53:54.235Z,12.80
2022-11-13T09:57:14.451Z,12.90
2022-11-13T10:00:21.388Z,13.00
2022-11-13T10:04:00.592Z,13.10
2022-11-13T10:07:28.273Z,13.10
2022-11-13T10:10:53.677Z,13.20
2022-11-13T10:14:07.329Z,13.30
2022-11-13T10:17:30.826Z,13.40
2022-11-13T10:20:48.500Z,13.40
2022-11-13T10:23:56.682Z,13.40
2022-11-13T10:27:01.648Z,13.50
2022-11-13T10:30:15.565Z,13.50
2022-11-13T10:33:22.287Z,13.50
2022-11-13T10:37:12.178Z,13.60
2022-11-13T10:40:30.751Z,13.60
2022-11-13T10:43:35.486Z,13.70
2022-11-13T10:46:41.407Z,13.70
2022-11-13T10:49:46.057Z,13.70
2022-11-13T10:52:53.787Z,13.80
2022-11-13T10:56:00.556Z,13.90
2022-11-13T10:59:19.378Z,13.90
2022-11-13T11:02:28.994Z,14.00
2022-11-13T11:05:33.743Z,14.00
2022-11-13T11:08:41.615Z,14.00
2022-11-13T11:12:24.316Z,14.10
2022-11-13T11:15:49.076Z,14.10
2022-11-13T11:18:58.343Z,14.10
2022-11-13T11:22:17.640Z,14.20
2022-11-13T11:25:39.080Z,14.20
2022-11-13T11:28:49.490Z,14.20
2022-11-13T11:32:01.357Z,14.10
2022-11-13T11:35:23.570Z,14.10
2022-11-13T11:38:59.411Z,14.10
2022-11-13T11:42:36.140Z,14.00
2022-11-13T11:45:43.698Z,14.00
2022-11-13T11:48:49.591Z,13.90
2022-11-13T11:51:59.972Z,13.80
2022-11-13T11:55:23.210Z,13.80
2022-11-13T11:58:46.218Z,13.80
2022-11-13T12:02:02.496Z,13.80
2022-11-13T12:05:21.922Z,13.80
2022-11-13T12:08:46.097Z,13.80
2022-11-13T12:12:00.033Z,13.90
2022-11-13T12:15:15.477Z,13.90
2022-11-13T12:18:48.133Z,13.90
2022-11-13T12:22:10.656Z,14.00
2022-11-13T12:25:38.348Z,14.10
2022-11-13T12:29:09.727Z,14.10
2022-11-13T12:32:42.330Z,14.20
2022-11-13T12:35:52.138Z,14.30
2022-11-13T12:39:17.448Z,14.40
2022-11-13T12:42:31.002Z,14.50
2022-11-13T12:45:38.470Z,14.50
2022-11-13T12:48:47.984Z,14.60
2022-11-13T12:51:59.788Z,14.70
2022-11-13T12:55:24.981Z,14.70
2022-11-13T12:58:33.451Z,14.80
2022-11-13T13:01:47.576Z,14.80
2022-11-13T13:05:13.427Z,14.90
2022-11-13T13:08:18.048Z,14.90
2022-11-13T13:11:32.638Z,14.90
2022-11-13T13:15:16.335Z,15.00
2022-11-13T13:18:21.063Z,15.00
2022-11-13T13:21:25.822Z,15.00
2022-11-13T13:24:30.733Z,15.00
2022-11-13T13:27:39.262Z,14.90
2022-11-13T13:30:56.882Z,14.90
2022-11-13T13:34:23.747Z,14.90
2022-11-13T13:37:52.958Z,14.90
2022-11-13T13:41:11.654Z,15.00
2022-11-13T13:44:40.873Z,15.10
2022-11-13T13:47:51.575Z,15.20
2022-11-13T13:50:58.705Z,15.30
2022-11-13T13:54:07.274Z,15.40
2022-11-13T13:57:16.439Z,15.50
2022-11-13T14:00:21.296Z,15.50
2022-11-13T14:03:26.309Z,15.60
2022-11-13T14:06:31.663Z,15.70
2022-11-13T14:09:36.707Z,15.70
2022-11-13T14:12:43.081Z,15.80
2022-11-13T14:15:48.155Z,15.90
2022-11-13T14:19:04.353Z,16.00
2022-11-13T14:22:11.976Z,16.20
2022-11-13T14:25:26.584Z,16.30
2022-11-13T14:28:52.262Z,16.50
2022-11-13T14:32:06.065Z,16.50
2022-11-13T14:35:19.839Z,16.60
2022-11-13T14:38:35.873Z,16.60
2022-11-13T14:41:46.785Z,16.40
2022-11-13T14:44:51.800Z,16.20
2022-11-13T14:48:26.441Z,16.10
2022-11-13T14:51:33.498Z,15.80
2022-11-13T14:55:13.105Z,15.60
2022-11-13T14:58:04.154Z,15.40
2022-11-13T15:01:17.702Z,15.10
2022-11-13T15:04:22.428Z,15.00
2022-11-13T15:07:33.298Z,14.80
2022-11-13T15:10:38.139Z,14.80
2022-11-13T15:13:43.451Z,14.80
2022-11-13T15:16:49.905Z,14.80
2022-11-13T15:19:55.063Z,14.70
2022-11-13T15:23:00.422Z,14.70
2022-11-13T15:26:05.304Z,14.70
2022-11-13T15:29:10.262Z,14.60
2022-11-13T15:32:16.009Z,14.50
2022-11-13T15:35:20.762Z,14.50
2022-11-13T15:38:25.688Z,14.40
2022-11-13T15:41:31.217Z,14.40
2022-11-13T15:44:35.991Z,14.30
2022-11-13T15:47:41.601Z,14.30
2022-11-13T15:50:47.227Z,14.30
2022-11-13T15:54:05.018Z,14.20
2022-11-13T15:57:22.786Z,14.20
2022-11-13T16:00:28.848Z,14.10
2022-11-13T16:03:39.509Z,14.00
2022-11-13T16:06:47.844Z,14.00
2022-11-13T16:09:53.006Z,13.90
2022-11-13T16:13:00.864Z,13.90
2022-11-13T16:16:05.920Z,13.90
2022-11-13T16:19:22.273Z,13.80
2022-11-13T16:22:27.446Z,13.80
2022-11-13T16:25:32.282Z,13.80
2022-11-13T16:28:52.694Z,13.70
2022-11-13T16:32:01.985Z,13.70
2022-11-13T16:35:14.627Z,13.70
2022-11-13T16:38:19.222Z,13.60
2022-11-13T16:41:24.059Z,13.60
2022-11-13T16:44:29.165Z,13.60
2022-11-13T16:47:33.953Z,13.60
2022-11-13T16:50:39.862Z,13.60
2022-11-13T16:53:44.778Z,13.60
2022-11-13T16:56:49.666Z,13.60
2022-11-13T16:59:54.176Z,13.50
2022-11-13T17:02:58.938Z,13.50
2022-11-13T17:06:04.423Z,13.50
2022-11-13T17:09:13.067Z,13.50
2022-11-13T17:12:21.872Z,13.40
2022-11-13T17:15:27.593Z,13.40
2022-11-13T17:18:32.467Z,13.40
2022-11-13T17:21:42.820Z,13.30
2022-11-13T17:24:50.047Z,13.30
2022-11-13T17:27:54.715Z,13.30
2022-11-13T17:31:07.276Z,13.30
2022-11-13T17:34:12.244Z,13.20
2022-11-13T17:37:18.087Z,13.20
2022-11-13T17:40:24.561Z,13.10
2022-11-13T17:43:29.738Z,13.10
2022-11-13T17:46:34.731Z,13.10
2022-11-13T17:49:39.389Z,13.10
2022-11-13T17:52:44.413Z,13.10
2022-11-13T17:55:57.364Z,13.10
2022-11-13T17:59:03.244Z,13.00
2022-11-13T18:02:11.363Z,13.00
2022-11-13T18:05:16.334Z,13.00
2022-11-13T18:08:21.963Z,12.90
2022-11-13T18:11:28.717Z,12.90
2022-11-13T18:14:33.665Z,12.80
2022-11-13T18:17:38.664Z,12.80
2022-11-13T18:20:43.537Z,12.80
2022-11-13T18:23:48.227Z,12.80
2022-11-13T18:26:52.927Z,12.80
2022-11-13T18:29:57.828Z,12.70
2022-11-13T18:33:02.764Z,12.70
2022-11-13T18:36:08.735Z,12.70
2022-11-13T18:39:16.617Z,12.60
2022-11-13T18:42:21.972Z,12.60
2022-11-13T18:45:26.609Z,12.50
2022-11-13T18:48:36.602Z,12.50
2022-11-13T18:51:41.170Z,12.40
2022-11-13T18:54:45.783Z,12.30
2022-11-13T18:57:50.664Z,12.30
2022-11-13T19:00:55.929Z,12.20
2022-11-13T19:07:29.467Z,12.10
2022-11-13T19:10:34.783Z,12.10
2022-11-13T19:13:41.619Z,12.00
2022-11-13T19:16:46.671Z,11.90
2022-11-13T19:19:51.279Z,11.90
2022-11-13T19:22:56.265Z,11.90
2022-11-13T19:26:00.566Z,11.80
2022-11-13T19:29:05.380Z,11.80
2022-11-13T19:32:10.360Z,11.70
2022-11-13T19:35:15.619Z,11.70
2022-11-13T19:38:20.605Z,11.70
2022-11-13T19:41:26.546Z,11.70
2022-11-13T19:44:31.190Z,11.60
2022-11-13T19:47:35.919Z,11.60
2022-11-13T19:50:40.666Z,11.60
2022-11-13T19:53:46.374Z,11.60
2022-11-13T19:56:50.852Z,11.50
2022-11-13T19:59:55.741Z,11.50
2022-11-13T20:03:03.794Z,11.50
2022-11-13T20:06:14.405Z,11.50
2022-11-13T20:09:19.283Z,11.50
2022-11-13T20:12:24.196Z,11.50
2022-11-13T20:15:28.723Z,11.40
2022-11-13T20:18:33.456Z,11.30
2022-11-13T20:21:38.887Z,11.30
2022-11-13T20:24:43.936Z,11.30
2022-11-13T20:27:49.010Z,11.20
2022-11-13T20:31:03.040Z,11.10
2022-11-13T20:34:08.576Z,11.00
2022-11-13T20:37:13.451Z,10.90
2022-11-13T20:40:18.607Z,10.90
2022-11-13T20:43:23.787Z,10.80
2022-11-13T20:46:28.515Z,10.70
2022-11-13T20:49:32.654Z,10.60
2022-11-13T20:52:37.386Z,10.60
2022-11-13T20:55:42.222Z,10.50
2022-11-13T20:58:47.449Z,10.50
2022-11-13T21:01:52.196Z,10.40
2022-11-13T21:04:56.709Z,10.40
2022-11-13T21:08:01.565Z,10.30
2022-11-13T21:11:07.979Z,10.30
2022-11-13T21:14:13.018Z,10.30
2022-11-13T21:17:17.873Z,10.30
2022-11-13T21:20:22.474Z,10.20
2022-11-13T21:23:29.095Z,10.20
2022-11-13T21:26:33.921Z,10.20
2022-11-13T21:29:38.843Z,10.10
2022-11-13T21:32:43.716Z,10.10
2022-11-13T21:35:48.720Z,10.10
2022-11-13T21:38:54.888Z,10.00
2022-11-13T21:41:59.353Z,10.00
2022-11-13T21:45:04.662Z,10.00
2022-11-13T21:48:09.370Z,9.90
2022-11-13T21:51:14.546Z,9.90
2022-11-13T21:54:19.554Z,9.90
2022-11-13T21:57:24.931Z,9.80
2022-11-13T22:00:29.511Z,9.80
2022-11-13T22:03:34.119Z,9.80
2022-11-13T22:06:41.589Z,9.80
2022-11-13T22:09:46.655Z,9.80
2022-11-13T22:12:51.856Z,9.70
2022-11-13T22:15:57.025Z,9.80
2022-11-13T22:19:04.105Z,9.70
2022-11-13T22:22:08.960Z,9.70
2022-11-13T22:25:13.911Z,9.80
2022-11-13T22:28:18.970Z,9.70
2022-11-13T22:31:26.473Z,9.70
2022-11-13T22:34:31.137Z,9.70
2022-11-13T22:37:35.960Z,9.70
2022-11-13T22:40:40.980Z,9.70
2022-11-13T22:43:48.881Z,9.70
2022-11-13T22:46:53.734Z,9.70
2022-11-13T22:50:00.502Z,9.70
2022-11-13T22:53:05.256Z,9.60
2022-11-13T22:56:12.205Z,9.70
2022-11-13T22:59:16.682Z,9.60
2022-11-13T23:02:21.387Z,9.60
2022-11-13T23:05:26.322Z,9.60
2022-11-13T23:08:38.639Z,9.50
2022-11-13T23:11:43.957Z,9.50
2022-11-13T23:14:48.681Z,9.40
2022-11-13T23:17:53.526Z,9.40
2022-11-13T23:20:58.789Z,9.40
2022-11-13T23:24:03.851Z,9.30
2022-11-13T23:27:08.504Z,9.30
2022-11-13T23:30:14.814Z,9.20
2022-11-13T23:33:22.628Z,9.20
2022-11-13T23:36:28.327Z,9.20
2022-11-13T23:39:33.160Z,9.10
2022-11-13T23:42:54.275Z,9.10
2022-11-13T23:46:02.075Z,9.10
2022-11-13T23:49:12.963Z,9.10
2022-11-13T23:52:18.486Z,9.00
2022-11-13T23:55:23.664Z,9.00
2022-11-13T23:58:28.636Z,9.00
